Kezdőlap
METAR-TAF:

METAR-TAF

Repülőterek :

Omaha, Nebraska, Amerikai Egyesült Államok

földrajzi szélesség: 41-11-45N, földrajzi hosszúság: 096-06-44W, magasság: 320 m

Jelenlegi meteorológiai megfigyelések

A jelentés 25 perccel ezelõtt készült, 15:55 UTC
Északnyugati szél 14 kt széllökések: 17 kt
Hőmérséklet 13°C
Páratartalom 47%
Légköri nyomás 1027 hPa
Látótávolság: 16.1 km
Szórványos felhőzet 3800 lábon

METAR: KMLE 011555Z AUTO 32014G17KT 10SM SCT038 13/02 A3032 RMK AO2 T01300022

Idő: 11:20 (16:20 UTC)


TAF: hiányzik

Meteorológiai megfigyelések és előrejelzések több, mint 4000 repülőtéren (METAR és TAF jelentéseket).

A térképen piros és sárga pontok jelzik az elérhető meteorológiai állomásokat.

Mozgassa az egeret a pont fölött, hogy megjelenjen az állomás neve.

Azután kattintson az időjárási megfigyelések és előrejelzések megtekintéséhez.

A térkép megváltoztatása: kattintson a fekete keresztel jelölt zöld gombra ráközelítéshez, a vonallal jelölt zöld gombra távolításhoz, vagy a zöld nyilakra a szomszédos térképek eléréséhez.


METAR-TAF: